createdAt,value
2023-10-18T00:00:28.494Z,4.80
2023-10-18T00:02:56.271Z,4.60
2023-10-18T00:05:25.264Z,4.40
2023-10-18T00:07:58.806Z,4.37
2023-10-18T00:10:28.029Z,4.77
2023-10-18T00:12:56.554Z,4.90
2023-10-18T00:15:24.018Z,5.17
2023-10-18T00:17:51.525Z,4.90
2023-10-18T00:20:20.835Z,5.07
2023-10-18T00:22:48.283Z,5.37
2023-10-18T00:25:17.172Z,5.60
2023-10-18T00:27:47.973Z,5.50
2023-10-18T00:30:17.666Z,5.10
2023-10-18T00:32:46.860Z,5.30
2023-10-18T00:35:16.016Z,4.87
2023-10-18T00:37:44.504Z,5.80
2023-10-18T00:40:32.344Z,5.00
2023-10-18T00:43:07.946Z,5.57
2023-10-18T00:45:37.650Z,5.33
2023-10-18T00:48:06.808Z,5.60
2023-10-18T00:50:36.203Z,5.43
2023-10-18T00:53:03.700Z,5.00
2023-10-18T00:55:31.902Z,6.23
2023-10-18T00:57:59.340Z,5.50
2023-10-18T01:00:26.744Z,6.07
2023-10-18T01:02:55.859Z,5.67
2023-10-18T01:05:23.275Z,5.63
2023-10-18T01:07:52.388Z,6.20
2023-10-18T01:10:20.433Z,5.97
2023-10-18T01:12:48.847Z,5.90
2023-10-18T01:15:17.867Z,5.93
2023-10-18T01:17:46.072Z,5.97
2023-10-18T01:20:31.352Z,6.33
2023-10-18T01:22:58.784Z,6.00
2023-10-18T01:25:26.197Z,6.07
2023-10-18T01:27:53.650Z,6.13
2023-10-18T01:30:21.145Z,6.30
2023-10-18T01:32:49.731Z,6.23
2023-10-18T01:35:17.128Z,6.27
2023-10-18T01:37:44.620Z,6.57
2023-10-18T01:40:31.713Z,5.47
2023-10-18T01:42:59.224Z,6.13
2023-10-18T01:45:37.238Z,5.63
2023-10-18T01:48:06.447Z,5.40
2023-10-18T01:50:33.877Z,6.30
2023-10-18T01:53:01.417Z,5.73
2023-10-18T01:55:30.566Z,6.67
2023-10-18T01:57:59.122Z,6.47
2023-10-18T02:00:28.187Z,5.80
2023-10-18T02:02:55.778Z,6.10
2023-10-18T02:05:25.090Z,6.67
2023-10-18T02:07:54.513Z,5.77
2023-10-18T02:10:24.808Z,5.77
2023-10-18T02:12:52.330Z,5.80
2023-10-18T02:15:19.808Z,6.60
2023-10-18T02:17:47.260Z,5.80
2023-10-18T02:20:16.482Z,5.90
2023-10-18T02:22:44.366Z,6.10
2023-10-18T02:25:13.558Z,6.33
2023-10-18T02:27:41.006Z,6.03
2023-10-18T02:30:10.567Z,5.93
2023-10-18T02:32:39.587Z,6.60
2023-10-18T02:35:08.708Z,6.70
2023-10-18T02:37:36.132Z,6.57
2023-10-18T02:40:09.713Z,6.40
2023-10-18T02:42:38.385Z,6.37
2023-10-18T02:45:07.773Z,6.47
2023-10-18T02:47:35.500Z,7.53
2023-10-18T02:50:03.041Z,7.53
2023-10-18T02:52:31.839Z,7.00
2023-10-18T02:55:00.930Z,7.17
2023-10-18T02:57:28.313Z,7.40
2023-10-18T02:59:56.938Z,8.03
2023-10-18T03:02:25.846Z,7.70
2023-10-18T03:04:54.061Z,7.90
2023-10-18T03:07:23.352Z,7.80
2023-10-18T03:09:51.144Z,7.97
2023-10-18T03:12:19.051Z,8.20
2023-10-18T03:14:55.501Z,8.93
2023-10-18T03:17:24.734Z,9.00
2023-10-18T03:19:54.939Z,10.30
2023-10-18T03:22:23.557Z,8.60
2023-10-18T03:24:57.278Z,8.70
2023-10-18T03:27:29.906Z,9.50
2023-10-18T03:30:00.468Z,8.87
2023-10-18T03:32:28.394Z,8.63
2023-10-18T03:34:57.458Z,8.43
2023-10-18T03:37:26.583Z,8.50
2023-10-18T03:39:54.670Z,8.90
2023-10-18T03:42:34.713Z,8.40
2023-10-18T03:45:04.005Z,8.50
2023-10-18T03:47:33.080Z,8.73
2023-10-18T03:50:00.505Z,8.50
2023-10-18T03:52:28.513Z,9.23
2023-10-18T03:54:57.594Z,7.67
2023-10-18T03:57:31.993Z,8.77
2023-10-18T03:59:59.453Z,9.07
2023-10-18T04:02:29.086Z,9.30
2023-10-18T04:05:00.362Z,9.67
2023-10-18T04:07:28.111Z,8.97
2023-10-18T04:10:03.683Z,9.07
2023-10-18T04:12:31.090Z,9.97
2023-10-18T04:14:59.662Z,10.10
2023-10-18T04:17:37.758Z,9.50
2023-10-18T04:20:07.781Z,9.10
2023-10-18T04:22:37.675Z,9.60
2023-10-18T04:25:07.361Z,10.40
2023-10-18T04:27:34.702Z,9.70
2023-10-18T04:30:04.297Z,10.30
2023-10-18T04:32:31.165Z,9.53
2023-10-18T04:34:58.969Z,10.27
2023-10-18T04:37:27.384Z,10.60
2023-10-18T04:39:56.408Z,10.17
2023-10-18T04:42:25.365Z,10.13
2023-10-18T04:44:54.408Z,11.80
2023-10-18T04:47:23.491Z,10.90
2023-10-18T04:50:04.573Z,11.23
2023-10-18T04:52:33.687Z,11.90
2023-10-18T04:55:01.643Z,11.37
2023-10-18T04:57:29.569Z,11.40
2023-10-18T04:59:58.657Z,12.00
2023-10-18T05:02:30.540Z,12.23
2023-10-18T05:04:58.327Z,11.57
2023-10-18T05:07:43.842Z,12.53
2023-10-18T05:10:24.895Z,12.47
2023-10-18T05:13:04.662Z,12.23
2023-10-18T05:15:33.946Z,13.20
2023-10-18T05:18:08.948Z,13.50
2023-10-18T05:20:45.278Z,12.10
2023-10-18T05:23:14.360Z,13.50
2023-10-18T05:25:43.407Z,13.40
2023-10-18T05:28:12.435Z,12.43
2023-10-18T05:30:58.545Z,12.97
2023-10-18T05:33:42.635Z,13.47
2023-10-18T05:36:15.377Z,12.80
2023-10-18T05:38:47.521Z,14.50
2023-10-18T05:41:32.141Z,29.27
2023-10-18T05:44:00.707Z,18.27
2023-10-18T05:46:36.475Z,15.20
2023-10-18T05:49:05.756Z,13.50
2023-10-18T05:51:38.858Z,13.83
2023-10-18T05:54:06.574Z,14.33
2023-10-18T05:56:34.425Z,14.70
2023-10-18T05:59:22.869Z,15.70
2023-10-18T06:01:53.501Z,15.43
2023-10-18T06:04:26.737Z,14.43
2023-10-18T06:06:56.710Z,14.60
2023-10-18T06:09:29.352Z,14.43
2023-10-18T06:11:57.194Z,15.53
2023-10-18T06:14:28.883Z,14.30
2023-10-18T06:17:09.696Z,19.10
2023-10-18T06:19:39.819Z,14.70
2023-10-18T06:22:17.293Z,15.20
2023-10-18T06:24:46.987Z,15.83
2023-10-18T06:27:16.043Z,14.40
2023-10-18T06:29:44.327Z,15.47
2023-10-18T06:32:13.424Z,15.73
2023-10-18T06:34:42.943Z,15.27
2023-10-18T06:37:10.391Z,14.50
2023-10-18T06:39:38.366Z,14.77
2023-10-18T06:42:10.751Z,14.57
2023-10-18T06:44:38.160Z,16.30
2023-10-18T06:47:07.338Z,15.20
2023-10-18T06:49:34.818Z,14.87
2023-10-18T06:52:03.929Z,16.00
2023-10-18T06:54:36.080Z,13.90
2023-10-18T06:57:20.303Z,14.70
2023-10-18T06:59:51.548Z,15.53
2023-10-18T07:02:19.039Z,16.80
2023-10-18T07:04:55.125Z,14.30
2023-10-18T07:07:23.981Z,15.33
2023-10-18T07:09:54.646Z,15.13
2023-10-18T07:12:23.763Z,13.53
2023-10-18T07:14:52.406Z,18.77
2023-10-18T07:17:21.462Z,13.17
2023-10-18T07:19:53.566Z,14.10
2023-10-18T07:22:22.453Z,13.57
2023-10-18T07:24:52.016Z,13.73
2023-10-18T07:27:20.482Z,13.30
2023-10-18T07:29:49.613Z,14.00
2023-10-18T07:32:19.118Z,13.97
2023-10-18T07:34:46.511Z,14.73
2023-10-18T07:37:21.143Z,14.60
2023-10-18T07:39:58.433Z,19.33
2023-10-18T07:42:27.719Z,12.50
2023-10-18T07:44:56.609Z,14.13
2023-10-18T07:47:25.858Z,15.33
2023-10-18T07:49:55.304Z,12.87
2023-10-18T07:52:23.208Z,13.33
2023-10-18T07:54:50.947Z,12.80
2023-10-18T07:57:18.996Z,14.97
2023-10-18T07:59:49.504Z,13.47
2023-10-18T08:02:27.467Z,12.53
2023-10-18T08:04:56.562Z,16.40
2023-10-18T08:07:24.951Z,11.60
2023-10-18T08:09:56.702Z,12.40
2023-10-18T08:12:30.657Z,12.67
2023-10-18T08:14:58.419Z,11.97
2023-10-18T08:17:33.616Z,12.67
2023-10-18T08:20:20.086Z,11.83
2023-10-18T08:22:48.075Z,13.20
2023-10-18T08:25:32.326Z,26.80
2023-10-18T08:28:01.521Z,11.87
2023-10-18T08:30:33.587Z,11.13
2023-10-18T08:33:01.047Z,11.60
2023-10-18T08:35:28.431Z,10.00
2023-10-18T08:37:55.863Z,10.70
2023-10-18T08:40:31.002Z,10.67
2023-10-18T08:43:09.808Z,10.10
2023-10-18T08:45:41.758Z,15.23
2023-10-18T08:48:12.352Z,9.97
2023-10-18T08:50:41.884Z,10.87
2023-10-18T08:53:12.205Z,12.40
2023-10-18T08:55:45.632Z,9.33
2023-10-18T08:58:16.104Z,9.80
2023-10-18T09:00:57.478Z,9.00
2023-10-18T09:03:25.387Z,11.67
2023-10-18T09:05:53.575Z,8.70
2023-10-18T09:08:22.974Z,9.57
2023-10-18T09:10:55.589Z,8.90
2023-10-18T09:13:26.442Z,9.20
2023-10-18T09:16:01.067Z,9.20
2023-10-18T09:18:26.687Z,9.53
2023-10-18T09:20:59.384Z,11.00
2023-10-18T09:23:28.451Z,9.20
2023-10-18T09:26:14.310Z,9.07
2023-10-18T09:28:45.754Z,14.90
2023-10-18T09:31:17.385Z,9.03
2023-10-18T09:33:55.804Z,9.70
2023-10-18T09:36:26.828Z,9.20
2023-10-18T09:38:55.283Z,8.70
2023-10-18T09:41:23.047Z,12.43
2023-10-18T09:43:50.468Z,9.27
2023-10-18T09:46:19.278Z,9.10
2023-10-18T09:48:47.487Z,10.30
2023-10-18T09:51:16.109Z,9.57
2023-10-18T09:53:44.202Z,9.03
2023-10-18T09:56:15.147Z,8.90
2023-10-18T09:58:46.029Z,13.33
2023-10-18T10:01:33.824Z,10.90
2023-10-18T10:04:02.966Z,9.23
2023-10-18T10:06:30.354Z,16.97
2023-10-18T10:09:14.108Z,8.90
2023-10-18T10:11:45.332Z,8.23
2023-10-18T10:14:15.948Z,7.83
2023-10-18T10:16:46.738Z,8.20
2023-10-18T10:19:16.499Z,8.37
2023-10-18T10:21:44.880Z,8.00
2023-10-18T10:24:30.685Z,7.00
2023-10-18T10:27:29.949Z,7.43
2023-10-18T10:29:57.758Z,6.87
2023-10-18T10:32:31.674Z,6.60
2023-10-18T10:35:14.764Z,10.13
2023-10-18T10:37:49.097Z,7.03
2023-10-18T10:40:22.632Z,7.17
2023-10-18T10:42:50.464Z,7.20
2023-10-18T10:45:42.244Z,6.17
2023-10-18T10:48:21.874Z,7.40
2023-10-18T10:50:53.803Z,8.03
2023-10-18T10:53:41.862Z,12.80
2023-10-18T10:56:12.407Z,10.43
2023-10-18T10:58:40.138Z,6.87
2023-10-18T11:01:08.703Z,6.80
2023-10-18T11:03:55.794Z,5.80
2023-10-18T11:06:27.694Z,6.50
2023-10-18T11:08:55.504Z,6.77
2023-10-18T11:11:23.289Z,6.80
2023-10-18T11:13:51.794Z,8.47
2023-10-18T11:16:21.317Z,7.00
2023-10-18T11:18:53.390Z,7.00
2023-10-18T11:21:29.175Z,6.90
2023-10-18T21:07:41.867Z,5.90
2023-10-18T21:10:10.985Z,6.70
2023-10-18T21:12:38.405Z,8.00
2023-10-18T21:15:07.731Z,6.70
2023-10-18T21:17:35.245Z,7.40
2023-10-18T21:20:04.302Z,6.87
2023-10-18T21:22:31.819Z,6.90
2023-10-18T21:25:01.139Z,7.27
2023-10-18T21:27:28.850Z,8.73
2023-10-18T21:29:56.259Z,7.63
2023-10-18T21:32:23.798Z,7.90
2023-10-18T21:34:51.409Z,7.70
2023-10-18T21:37:19.453Z,7.47
2023-10-18T21:39:47.545Z,8.20
2023-10-18T21:42:14.983Z,8.00
2023-10-18T21:44:42.469Z,8.40
2023-10-18T21:47:10.773Z,9.53
2023-10-18T21:49:38.229Z,8.90
2023-10-18T21:52:05.627Z,9.17
2023-10-18T21:54:33.517Z,8.17
2023-10-18T21:57:02.215Z,9.60
2023-10-18T21:59:31.508Z,9.70
2023-10-18T22:02:00.705Z,10.37
2023-10-18T22:04:28.218Z,9.20
2023-10-18T22:06:56.591Z,9.77
2023-10-18T22:09:33.176Z,10.07
2023-10-18T22:12:02.463Z,10.60
2023-10-18T22:14:30.730Z,11.77
2023-10-18T22:16:58.353Z,11.80
2023-10-18T22:19:32.228Z,10.87
2023-10-18T22:22:01.767Z,11.20
2023-10-18T22:24:31.126Z,10.70
2023-10-18T22:26:59.154Z,12.17
2023-10-18T22:29:28.298Z,12.20
2023-10-18T22:32:10.302Z,13.20
2023-10-18T22:34:25.971Z,13.03
2023-10-18T22:36:53.407Z,12.00
2023-10-18T22:39:22.576Z,13.00
2023-10-18T22:41:50.870Z,13.20
2023-10-18T22:44:33.862Z,14.23
2023-10-18T22:47:19.671Z,13.23
2023-10-18T22:49:49.519Z,12.60
2023-10-18T22:52:18.801Z,12.90
2023-10-18T22:54:46.777Z,11.90
2023-10-18T22:57:21.625Z,12.00
2023-10-18T22:59:49.938Z,11.03
2023-10-18T23:02:18.987Z,11.27
2023-10-18T23:04:46.417Z,11.30
2023-10-18T23:07:15.587Z,10.50
2023-10-18T23:09:46.131Z,11.53
2023-10-18T23:12:21.429Z,11.70
2023-10-18T23:14:50.485Z,12.13
2023-10-18T23:17:18.591Z,11.90
2023-10-18T23:19:50.669Z,12.50
2023-10-18T23:22:22.143Z,13.03
2023-10-18T23:24:49.882Z,12.20
2023-10-18T23:27:35.449Z,10.20
2023-10-18T23:30:20.306Z,10.63
2023-10-18T23:32:55.666Z,10.13
2023-10-18T23:35:24.790Z,11.20
2023-10-18T23:37:59.850Z,10.00
2023-10-18T23:40:27.647Z,9.53
2023-10-18T23:42:57.325Z,10.10
2023-10-18T23:45:29.344Z,10.13
2023-10-18T23:48:07.498Z,10.33
2023-10-18T23:50:36.562Z,11.57
2023-10-18T23:53:14.774Z,11.80
2023-10-18T23:55:43.855Z,12.07
2023-10-18T23:58:15.539Z,11.23
